createdAt,value
2023-02-26T00:00:19.293Z,3.69
2023-02-26T00:01:19.466Z,3.70
2023-02-26T00:02:19.665Z,3.69
2023-02-26T00:03:19.863Z,3.70
2023-02-26T00:04:19.983Z,3.69
2023-02-26T00:05:20.171Z,3.66
2023-02-26T00:06:20.337Z,3.65
2023-02-26T00:07:20.512Z,3.66
2023-02-26T00:08:20.691Z,3.63
2023-02-26T00:09:20.852Z,3.60
2023-02-26T00:10:21.039Z,3.60
2023-02-26T00:11:21.220Z,3.59
2023-02-26T00:12:21.369Z,3.55
2023-02-26T00:13:21.702Z,3.56
2023-02-26T00:14:21.710Z,3.55
2023-02-26T00:15:21.887Z,3.55
2023-02-26T00:16:22.044Z,3.56
2023-02-26T00:17:22.289Z,3.56
2023-02-26T00:18:22.399Z,3.55
2023-02-26T00:19:22.586Z,3.53
2023-02-26T00:20:22.743Z,3.51
2023-02-26T00:21:22.929Z,3.51
2023-02-26T00:22:23.087Z,3.53
2023-02-26T00:23:23.268Z,3.50
2023-02-26T00:24:23.432Z,3.51
2023-02-26T00:25:23.607Z,3.53
2023-02-26T00:26:23.768Z,3.53
2023-02-26T00:27:23.942Z,3.53
2023-02-26T00:28:24.127Z,3.50
2023-02-26T00:29:24.278Z,3.50
2023-02-26T00:30:24.449Z,3.47
2023-02-26T00:31:24.903Z,3.50
2023-02-26T00:32:24.818Z,3.50
2023-02-26T00:33:24.980Z,3.48
2023-02-26T00:34:25.141Z,3.48
2023-02-26T00:35:25.307Z,3.50
2023-02-26T00:36:25.945Z,3.50
2023-02-26T00:37:25.673Z,3.50
2023-02-26T00:38:25.847Z,3.48
2023-02-26T00:39:26.026Z,3.47
2023-02-26T00:40:26.188Z,3.44
2023-02-26T00:41:26.379Z,3.42
2023-02-26T00:42:26.527Z,3.41
2023-02-26T00:43:26.738Z,3.41
2023-02-26T00:44:26.901Z,3.40
2023-02-26T00:45:27.087Z,3.37
2023-02-26T00:46:27.695Z,3.40
2023-02-26T00:47:27.419Z,3.40
2023-02-26T00:48:27.604Z,3.41
2023-02-26T00:49:27.787Z,3.44
2023-02-26T00:50:27.954Z,3.44
2023-02-26T00:51:28.125Z,3.45
2023-02-26T00:52:28.300Z,3.48
2023-02-26T00:53:28.477Z,3.50
2023-02-26T00:54:28.636Z,3.50
2023-02-26T00:55:29.659Z,3.53
2023-02-26T00:56:28.990Z,3.51
2023-02-26T00:57:29.156Z,3.53
2023-02-26T00:58:29.344Z,3.51
2023-02-26T00:59:29.516Z,3.50
2023-02-26T01:00:29.676Z,3.50
2023-02-26T01:01:29.922Z,3.50
2023-02-26T01:02:30.020Z,3.48
2023-02-26T01:03:30.247Z,3.50
2023-02-26T01:04:30.364Z,3.51
2023-02-26T01:05:30.546Z,3.47
2023-02-26T01:06:30.717Z,3.50
2023-02-26T01:07:30.898Z,3.48
2023-02-26T01:08:31.072Z,3.47
2023-02-26T01:09:31.241Z,3.45
2023-02-26T01:10:31.404Z,3.45
2023-02-26T01:11:31.600Z,3.47
2023-02-26T01:12:31.728Z,3.50
2023-02-26T01:13:31.925Z,3.55
2023-02-26T01:14:32.082Z,3.55
2023-02-26T01:15:32.295Z,3.56
2023-02-26T01:16:32.449Z,3.58
2023-02-26T01:17:32.621Z,3.58
2023-02-26T01:18:32.794Z,3.59
2023-02-26T01:19:32.958Z,3.59
2023-02-26T01:20:33.146Z,3.65
2023-02-26T01:21:33.293Z,3.68
2023-02-26T01:22:33.463Z,3.70
2023-02-26T01:23:33.642Z,3.70
2023-02-26T01:24:33.818Z,3.74
2023-02-26T01:25:33.990Z,3.77
2023-02-26T01:26:34.161Z,3.73
2023-02-26T01:27:34.344Z,3.77
2023-02-26T01:28:34.509Z,3.78
2023-02-26T01:29:34.688Z,3.81
2023-02-26T01:30:34.838Z,3.78
2023-02-26T01:31:35.131Z,3.81
2023-02-26T01:32:35.186Z,3.80
2023-02-26T01:33:35.348Z,3.84
2023-02-26T01:34:35.517Z,3.84
2023-02-26T01:35:35.695Z,3.91
2023-02-26T01:36:35.886Z,3.91
2023-02-26T01:37:36.057Z,3.94
2023-02-26T01:38:36.230Z,3.95
2023-02-26T01:39:36.397Z,3.94
2023-02-26T01:40:36.567Z,3.96
2023-02-26T01:41:36.746Z,3.95
2023-02-26T01:42:36.900Z,3.98
2023-02-26T01:43:37.170Z,4.01
2023-02-26T01:44:37.262Z,4.06
2023-02-26T01:45:37.431Z,4.05
2023-02-26T01:46:37.633Z,4.10
2023-02-26T01:47:37.779Z,4.10
2023-02-26T01:48:37.967Z,4.13
2023-02-26T01:49:38.110Z,4.12
2023-02-26T01:50:38.270Z,4.12
2023-02-26T01:51:38.470Z,4.17
2023-02-26T01:52:38.639Z,4.17
2023-02-26T01:53:38.843Z,4.19
2023-02-26T01:54:39.005Z,4.20
2023-02-26T01:55:39.169Z,4.23
2023-02-26T01:56:39.329Z,4.24
2023-02-26T01:57:39.501Z,4.26
2023-02-26T01:58:39.691Z,4.26
2023-02-26T01:59:39.827Z,4.28
2023-02-26T02:00:39.991Z,4.28
2023-02-26T02:01:40.178Z,4.28
2023-02-26T02:02:40.384Z,4.28
2023-02-26T02:03:40.540Z,4.24
2023-02-26T02:04:40.670Z,4.30
2023-02-26T02:05:40.888Z,4.30
2023-02-26T02:06:40.978Z,4.28
2023-02-26T02:07:41.158Z,4.24
2023-02-26T02:08:41.366Z,4.26
2023-02-26T02:09:41.510Z,4.23
2023-02-26T02:10:41.686Z,4.19
2023-02-26T02:11:41.862Z,4.22
2023-02-26T02:12:42.027Z,4.19
2023-02-26T02:13:42.230Z,4.14
2023-02-26T02:14:42.362Z,4.19
2023-02-26T02:15:42.530Z,4.17
2023-02-26T02:16:42.786Z,4.17
2023-02-26T02:17:42.872Z,4.20
2023-02-26T02:18:43.067Z,4.20
2023-02-26T02:19:43.247Z,4.23
2023-02-26T02:20:43.413Z,4.20
2023-02-26T02:21:43.590Z,4.17
2023-02-26T02:22:43.751Z,4.22
2023-02-26T02:23:43.940Z,4.20
2023-02-26T02:24:44.083Z,4.17
2023-02-26T02:25:44.249Z,4.20
2023-02-26T02:26:44.420Z,4.19
2023-02-26T02:27:44.592Z,4.13
2023-02-26T02:28:44.759Z,4.14
2023-02-26T02:29:44.933Z,4.16
2023-02-26T02:30:45.104Z,4.16
2023-02-26T02:31:45.503Z,4.14
2023-02-26T02:32:45.453Z,4.14
2023-02-26T02:33:45.624Z,4.16
2023-02-26T02:34:45.789Z,4.20
2023-02-26T02:35:45.957Z,4.22
2023-02-26T02:36:46.141Z,4.20
2023-02-26T02:37:46.303Z,4.20
2023-02-26T02:38:46.487Z,4.19
2023-02-26T02:39:46.659Z,4.19
2023-02-26T02:40:46.832Z,4.16
2023-02-26T02:41:46.999Z,4.17
2023-02-26T02:42:47.223Z,4.14
2023-02-26T02:43:47.358Z,4.16
2023-02-26T02:44:47.516Z,4.14
2023-02-26T02:45:47.740Z,4.14
2023-02-26T02:46:47.936Z,4.16
2023-02-26T02:47:48.044Z,4.16
2023-02-26T02:48:48.229Z,4.14
2023-02-26T02:49:48.396Z,4.17
2023-02-26T02:50:48.576Z,4.19
2023-02-26T02:51:48.735Z,4.17
2023-02-26T02:52:48.941Z,4.22
2023-02-26T02:53:49.118Z,4.23
2023-02-26T02:54:49.287Z,4.22
2023-02-26T02:55:49.458Z,4.22
2023-02-26T02:56:49.643Z,4.22
2023-02-26T02:57:49.804Z,4.22
2023-02-26T02:58:50.018Z,4.24
2023-02-26T02:59:50.150Z,4.23
2023-02-26T03:00:50.344Z,4.26
2023-02-26T03:01:50.495Z,4.30
2023-02-26T03:02:50.681Z,4.26
2023-02-26T03:03:50.857Z,4.23
2023-02-26T03:04:51.022Z,4.23
2023-02-26T03:05:51.186Z,4.24
2023-02-26T03:06:51.368Z,4.23
2023-02-26T03:07:51.525Z,4.23
2023-02-26T03:08:51.698Z,4.22
2023-02-26T03:09:51.876Z,4.22
2023-02-26T03:10:52.048Z,4.22
2023-02-26T03:11:52.212Z,4.19
2023-02-26T03:12:52.385Z,4.19
2023-02-26T03:13:52.565Z,4.19
2023-02-26T03:14:52.733Z,4.19
2023-02-26T03:15:52.895Z,4.17
2023-02-26T03:16:53.123Z,4.14
2023-02-26T03:17:53.245Z,4.17
2023-02-26T03:18:53.443Z,4.17
2023-02-26T03:19:53.613Z,4.19
2023-02-26T03:20:53.785Z,4.19
2023-02-26T03:21:53.962Z,4.16
2023-02-26T03:22:54.118Z,4.19
2023-02-26T03:23:54.301Z,4.19
2023-02-26T03:24:54.457Z,4.16
2023-02-26T03:25:54.616Z,4.16
2023-02-26T03:26:54.805Z,4.13
2023-02-26T03:27:54.968Z,4.12
2023-02-26T03:28:55.146Z,4.16
2023-02-26T03:29:55.316Z,4.14
2023-02-26T03:30:55.540Z,4.16
2023-02-26T03:31:55.770Z,4.20
2023-02-26T03:32:55.826Z,4.17
2023-02-26T03:33:56.015Z,4.17
2023-02-26T03:34:56.197Z,4.19
2023-02-26T03:35:56.359Z,4.16
2023-02-26T03:36:56.515Z,4.20
2023-02-26T03:37:56.676Z,4.19
2023-02-26T03:38:56.884Z,4.22
2023-02-26T03:39:57.007Z,4.20
2023-02-26T03:40:57.193Z,4.22
2023-02-26T03:41:57.366Z,4.19
2023-02-26T03:42:57.529Z,4.20
2023-02-26T03:43:57.719Z,4.20
2023-02-26T03:44:57.898Z,4.23
2023-02-26T03:45:58.098Z,4.26
2023-02-26T03:46:58.247Z,4.26
2023-02-26T03:47:58.421Z,4.28
2023-02-26T03:48:58.638Z,4.30
2023-02-26T03:49:58.759Z,4.30
2023-02-26T03:50:58.927Z,4.28
2023-02-26T03:51:59.118Z,4.28
2023-02-26T03:52:59.287Z,4.28
2023-02-26T03:53:59.466Z,4.28
2023-02-26T03:54:59.643Z,4.28
2023-02-26T03:55:59.805Z,4.22
2023-02-26T03:56:59.978Z,4.22
2023-02-26T03:58:00.132Z,4.19
2023-02-26T03:59:00.316Z,4.20
2023-02-26T04:00:00.501Z,4.17
2023-02-26T04:01:00.658Z,4.22
2023-02-26T04:02:00.839Z,4.22
2023-02-26T04:03:01.004Z,4.23
2023-02-26T04:04:01.224Z,4.22
2023-02-26T04:05:01.351Z,4.22
2023-02-26T04:06:01.528Z,4.22
2023-02-26T04:07:01.682Z,4.22
2023-02-26T04:08:01.865Z,4.24
2023-02-26T04:09:02.074Z,4.23
2023-02-26T04:10:02.234Z,4.23
2023-02-26T04:11:02.404Z,4.23
2023-02-26T04:12:02.568Z,4.23
2023-02-26T04:13:02.748Z,4.23
2023-02-26T04:14:02.932Z,4.26
2023-02-26T04:15:03.115Z,4.26
2023-02-26T04:16:03.283Z,4.24
2023-02-26T04:17:03.526Z,4.22
2023-02-26T04:18:03.636Z,4.23
2023-02-26T04:19:03.821Z,4.19
2023-02-26T04:20:03.994Z,4.19
2023-02-26T04:21:04.161Z,4.20
2023-02-26T04:22:04.335Z,4.20
2023-02-26T04:23:04.522Z,4.23
2023-02-26T04:24:04.690Z,4.24
2023-02-26T04:25:04.860Z,4.24
2023-02-26T04:26:05.058Z,4.24
2023-02-26T04:27:05.203Z,4.28
2023-02-26T04:28:05.380Z,4.26
2023-02-26T04:29:05.549Z,4.26
2023-02-26T04:30:05.715Z,4.28
2023-02-26T04:31:06.036Z,4.28
2023-02-26T04:32:06.193Z,4.26
2023-02-26T04:33:06.256Z,4.24
2023-02-26T04:34:06.447Z,4.23
2023-02-26T04:35:06.612Z,4.23
2023-02-26T04:36:06.767Z,4.24
2023-02-26T04:37:06.945Z,4.28
2023-02-26T04:38:07.104Z,4.30
2023-02-26T04:39:07.316Z,4.28
2023-02-26T04:40:07.452Z,4.28
2023-02-26T04:41:07.612Z,4.28
2023-02-26T04:42:07.786Z,4.28
2023-02-26T04:43:07.971Z,4.31
2023-02-26T04:44:08.151Z,4.34
2023-02-26T04:45:08.308Z,4.34
2023-02-26T04:46:08.515Z,4.32
2023-02-26T04:47:08.664Z,4.35
2023-02-26T04:48:08.821Z,4.37
2023-02-26T04:49:09.019Z,4.35
2023-02-26T04:50:09.150Z,4.35
2023-02-26T04:51:09.329Z,4.37
2023-02-26T04:52:09.515Z,4.37
2023-02-26T04:53:09.671Z,4.35
2023-02-26T04:54:09.870Z,4.35
2023-02-26T04:55:10.011Z,4.37
2023-02-26T04:56:10.186Z,4.37
2023-02-26T04:57:10.352Z,4.35
2023-02-26T04:58:10.518Z,4.37
2023-02-26T04:59:10.708Z,4.37
2023-02-26T05:00:10.890Z,4.38
2023-02-26T05:01:11.066Z,4.42
2023-02-26T05:02:11.239Z,4.44
2023-02-26T05:03:11.397Z,4.41
2023-02-26T05:04:11.576Z,4.45
2023-02-26T05:05:11.744Z,4.44
2023-02-26T05:06:11.915Z,4.45
2023-02-26T05:07:12.101Z,4.50
2023-02-26T05:08:12.260Z,4.49
2023-02-26T05:09:12.423Z,4.50
2023-02-26T05:10:12.600Z,4.50
2023-02-26T05:11:12.783Z,4.49
2023-02-26T05:12:13.941Z,4.48
2023-02-26T05:13:13.109Z,4.44
2023-02-26T05:14:13.281Z,4.41
2023-02-26T05:15:13.480Z,4.49
2023-02-26T05:16:13.695Z,4.49
2023-02-26T05:17:13.821Z,4.50
2023-02-26T05:18:13.995Z,4.49
2023-02-26T05:19:14.169Z,4.48
2023-02-26T05:20:14.349Z,4.49
2023-02-26T05:21:14.525Z,4.49
2023-02-26T05:22:14.680Z,4.49
2023-02-26T05:23:14.851Z,4.48
2023-02-26T05:24:15.022Z,4.48
2023-02-26T05:25:15.212Z,4.50
2023-02-26T05:26:15.382Z,4.52
2023-02-26T05:27:15.540Z,4.55
2023-02-26T05:28:15.716Z,4.53
2023-02-26T05:29:15.889Z,4.58
2023-02-26T05:30:16.108Z,4.59
2023-02-26T05:31:16.363Z,4.60
2023-02-26T05:32:16.459Z,4.60
2023-02-26T05:33:16.597Z,4.59
2023-02-26T05:34:16.771Z,4.59
2023-02-26T05:35:16.948Z,4.60
2023-02-26T05:36:17.118Z,4.60
2023-02-26T05:37:17.288Z,4.66
2023-02-26T05:38:17.458Z,4.67
2023-02-26T05:39:17.638Z,4.71
2023-02-26T05:40:17.819Z,4.71
2023-02-26T05:41:17.957Z,4.70
2023-02-26T05:42:18.125Z,4.70
2023-02-26T05:43:18.298Z,4.68
2023-02-26T05:44:18.478Z,4.70
2023-02-26T05:45:18.690Z,4.67
2023-02-26T05:46:18.914Z,4.67
2023-02-26T05:47:19.019Z,4.66
2023-02-26T05:48:19.166Z,4.63
2023-02-26T05:49:19.364Z,4.66
2023-02-26T05:50:19.535Z,4.68
2023-02-26T05:51:19.693Z,4.68
2023-02-26T05:52:19.890Z,4.68
2023-02-26T05:53:20.044Z,4.70
2023-02-26T05:54:20.211Z,4.71
2023-02-26T05:55:20.383Z,4.67
2023-02-26T05:56:20.554Z,4.68
2023-02-26T05:57:20.713Z,4.68
2023-02-26T05:58:20.895Z,4.70
2023-02-26T05:59:21.088Z,4.68
2023-02-26T06:00:21.304Z,4.70
2023-02-26T06:01:21.468Z,4.66
2023-02-26T06:02:21.611Z,4.70
2023-02-26T06:03:21.885Z,4.67
2023-02-26T06:04:21.941Z,4.66
2023-02-26T06:05:22.135Z,4.66
2023-02-26T06:06:22.355Z,4.63
2023-02-26T06:07:22.453Z,4.62
2023-02-26T06:08:22.626Z,4.59
2023-02-26T06:09:22.805Z,4.60
2023-02-26T06:10:22.995Z,4.62
2023-02-26T06:11:23.189Z,4.63
2023-02-26T06:12:23.321Z,4.68
2023-02-26T06:13:23.500Z,4.68
2023-02-26T06:14:23.680Z,4.71
2023-02-26T06:15:23.867Z,4.73
2023-02-26T06:16:24.398Z,4.71
2023-02-26T06:17:24.244Z,4.75
2023-02-26T06:18:24.398Z,4.77
2023-02-26T06:19:24.578Z,4.80
2023-02-26T06:20:24.760Z,4.84
2023-02-26T06:21:24.940Z,4.87
2023-02-26T06:22:25.105Z,4.89
2023-02-26T06:23:25.291Z,4.90
2023-02-26T06:24:25.465Z,4.90
2023-02-26T06:25:25.663Z,4.89
2023-02-26T06:26:26.107Z,4.90
2023-02-26T06:27:26.006Z,4.90
2023-02-26T06:28:26.178Z,4.92
2023-02-26T06:29:26.359Z,4.92
2023-02-26T06:30:26.606Z,4.96
2023-02-26T06:31:26.790Z,4.97
2023-02-26T06:32:29.024Z,4.99
2023-02-26T06:33:27.106Z,4.99
2023-02-26T06:34:27.276Z,5.00
2023-02-26T06:35:27.519Z,5.05
2023-02-26T06:36:27.833Z,5.02
2023-02-26T06:37:27.797Z,5.02
2023-02-26T06:38:27.982Z,5.07
2023-02-26T06:39:28.165Z,5.05
2023-02-26T06:40:28.361Z,5.10
2023-02-26T06:41:28.506Z,5.11
2023-02-26T06:42:28.670Z,5.10
2023-02-26T06:43:28.859Z,5.11
2023-02-26T06:44:29.021Z,5.12
2023-02-26T06:45:29.235Z,5.17
2023-02-26T06:46:29.361Z,5.14
2023-02-26T06:47:29.543Z,5.15
2023-02-26T06:48:29.710Z,5.17
2023-02-26T06:49:29.915Z,5.18
2023-02-26T06:50:30.073Z,5.17
2023-02-26T06:51:30.231Z,5.17
2023-02-26T06:52:30.442Z,5.17
2023-02-26T06:53:30.591Z,5.18
2023-02-26T06:54:30.781Z,5.18
2023-02-26T06:55:30.989Z,5.21
2023-02-26T06:56:31.152Z,5.23
2023-02-26T06:57:31.349Z,5.28
2023-02-26T06:58:31.515Z,5.25
2023-02-26T06:59:31.680Z,5.21
2023-02-26T07:00:31.880Z,5.20
2023-02-26T07:01:32.092Z,5.20
2023-02-26T07:02:32.340Z,5.18
2023-02-26T07:03:32.407Z,5.18
2023-02-26T07:04:32.567Z,5.20
2023-02-26T07:05:32.761Z,5.20
2023-02-26T07:06:32.919Z,5.20
2023-02-26T07:07:33.089Z,5.20
2023-02-26T07:08:33.276Z,5.23
2023-02-26T07:09:33.427Z,5.21
2023-02-26T07:10:33.651Z,5.26
2023-02-26T07:11:33.786Z,5.29
2023-02-26T07:12:34.007Z,5.33
2023-02-26T07:13:34.156Z,5.38
2023-02-26T07:14:34.363Z,5.43
2023-02-26T07:15:34.560Z,5.44
2023-02-26T07:16:34.732Z,5.48
2023-02-26T07:17:34.891Z,5.53
2023-02-26T07:18:35.065Z,5.47
2023-02-26T07:19:35.245Z,5.48
2023-02-26T07:20:35.471Z,5.53
2023-02-26T07:21:35.625Z,5.64
2023-02-26T07:22:35.806Z,5.68
2023-02-26T07:23:36.007Z,5.72
2023-02-26T07:24:36.186Z,5.69
2023-02-26T07:25:36.378Z,5.76
2023-02-26T07:26:36.536Z,5.80
2023-02-26T07:27:36.713Z,5.84
2023-02-26T07:28:36.904Z,5.91
2023-02-26T07:29:37.094Z,5.99
2023-02-26T07:30:37.368Z,6.05
2023-02-26T07:31:37.564Z,6.09
2023-02-26T07:32:37.653Z,6.09
2023-02-26T07:33:37.833Z,6.09
2023-02-26T07:34:37.994Z,6.14
2023-02-26T07:35:38.197Z,6.17
2023-02-26T07:36:38.354Z,6.20
2023-02-26T07:37:38.514Z,6.24
2023-02-26T07:38:38.700Z,6.26
2023-02-26T07:39:38.850Z,6.28
2023-02-26T07:40:39.047Z,6.31
2023-02-26T07:41:39.231Z,6.38
2023-02-26T07:42:39.359Z,6.39
2023-02-26T07:43:39.552Z,6.39
2023-02-26T07:44:39.728Z,6.42
2023-02-26T07:45:39.904Z,6.42
2023-02-26T07:46:40.064Z,6.42
2023-02-26T07:47:40.251Z,6.44
2023-02-26T07:48:40.420Z,6.42
2023-02-26T07:49:40.566Z,6.48
2023-02-26T07:50:40.744Z,6.51
2023-02-26T07:51:41.011Z,6.52
2023-02-26T07:52:41.103Z,6.57
2023-02-26T07:53:41.276Z,6.52
2023-02-26T07:54:41.442Z,6.57
2023-02-26T07:55:41.604Z,6.60
2023-02-26T07:56:41.766Z,6.64
2023-02-26T07:57:41.959Z,6.72
2023-02-26T07:58:42.146Z,6.77
2023-02-26T07:59:42.330Z,6.79
2023-02-26T08:00:42.498Z,6.85
2023-02-26T08:01:42.685Z,6.95
2023-02-26T08:02:42.831Z,7.06
2023-02-26T08:03:42.989Z,7.13
2023-02-26T08:04:43.173Z,7.23
2023-02-26T08:05:43.354Z,7.21
2023-02-26T08:06:43.517Z,7.31
2023-02-26T08:07:43.672Z,7.39
2023-02-26T08:08:43.862Z,7.45
2023-02-26T08:09:44.023Z,7.56
2023-02-26T08:10:44.232Z,7.66
2023-02-26T08:11:44.387Z,7.67
2023-02-26T08:12:44.573Z,7.66
2023-02-26T08:13:44.725Z,7.61
2023-02-26T08:14:44.920Z,7.56
2023-02-26T08:15:45.128Z,7.51
2023-02-26T08:16:45.252Z,7.53
2023-02-26T08:17:45.419Z,7.54
2023-02-26T08:18:45.578Z,7.63
2023-02-26T08:19:45.729Z,7.66
2023-02-26T08:20:45.933Z,7.60
2023-02-26T08:21:46.101Z,7.54
2023-02-26T08:22:46.263Z,7.56
2023-02-26T08:23:46.421Z,7.69
2023-02-26T08:24:46.594Z,7.87
2023-02-26T08:25:46.782Z,8.08
2023-02-26T08:26:46.955Z,8.27
2023-02-26T08:27:47.110Z,8.48
2023-02-26T08:28:47.278Z,8.89
2023-02-26T08:29:47.450Z,9.58
2023-02-26T08:30:47.676Z,10.63
2023-02-26T08:31:47.937Z,11.26
2023-02-26T08:32:48.106Z,11.52
2023-02-26T08:33:48.160Z,12.21
2023-02-26T08:34:48.347Z,12.94
2023-02-26T08:35:48.508Z,13.63
2023-02-26T08:36:48.669Z,14.14
2023-02-26T08:37:48.825Z,14.59
2023-02-26T08:38:48.989Z,15.04
2023-02-26T08:39:49.174Z,15.36
2023-02-26T08:40:49.359Z,15.65
2023-02-26T08:41:49.495Z,15.84
2023-02-26T08:42:49.671Z,16.10
2023-02-26T08:43:49.851Z,16.41
2023-02-26T08:44:50.027Z,16.58
2023-02-26T08:45:50.242Z,16.71
2023-02-26T08:46:50.419Z,16.78
2023-02-26T08:47:56.819Z,16.89
2023-02-26T08:48:51.780Z,17.08
2023-02-26T08:49:50.948Z,17.24
2023-02-26T08:50:51.140Z,17.51
2023-02-26T08:51:51.311Z,17.80
2023-02-26T08:52:51.486Z,18.04
2023-02-26T08:53:51.675Z,18.33
2023-02-26T08:54:51.852Z,18.31
2023-02-26T08:55:52.032Z,18.19
2023-02-26T08:56:52.183Z,18.49
2023-02-26T08:57:52.371Z,18.89
2023-02-26T08:58:52.539Z,19.12
2023-02-26T08:59:52.692Z,19.21
2023-02-26T09:00:52.892Z,19.52
2023-02-26T09:01:53.141Z,19.67
2023-02-26T09:02:53.279Z,19.94
2023-02-26T09:03:53.390Z,20.06
2023-02-26T09:04:53.555Z,19.34
2023-02-26T09:05:53.743Z,18.07
2023-02-26T09:06:53.885Z,17.45
2023-02-26T09:07:54.063Z,17.42
2023-02-26T09:08:54.235Z,17.11
2023-02-26T09:09:54.418Z,17.67
2023-02-26T09:10:54.616Z,18.49
2023-02-26T09:11:54.809Z,18.50
2023-02-26T09:12:54.972Z,17.68
2023-02-26T09:13:55.154Z,16.74
2023-02-26T09:14:55.345Z,16.66
2023-02-26T09:15:55.580Z,16.50
2023-02-26T09:16:55.715Z,16.50
2023-02-26T09:17:55.902Z,16.28
2023-02-26T09:18:56.064Z,16.17
2023-02-26T09:19:56.214Z,15.86
2023-02-26T09:20:56.415Z,15.70
2023-02-26T09:21:56.552Z,16.05
2023-02-26T09:22:56.733Z,16.38
2023-02-26T09:23:56.925Z,17.15
2023-02-26T09:24:57.159Z,18.01
2023-02-26T09:25:57.305Z,18.80
2023-02-26T09:26:57.474Z,19.48
2023-02-26T09:27:58.741Z,20.19
2023-02-26T09:28:57.795Z,20.90
2023-02-26T09:29:57.965Z,21.46
2023-02-26T09:30:58.197Z,21.92
2023-02-26T09:31:58.433Z,21.05
2023-02-26T09:32:58.526Z,19.71
2023-02-26T09:33:58.675Z,18.41
2023-02-26T09:34:58.841Z,17.12
2023-02-26T09:35:59.024Z,16.60
2023-02-26T09:36:59.195Z,17.11
2023-02-26T09:37:59.375Z,16.81
2023-02-26T09:38:59.538Z,15.98
2023-02-26T09:39:59.675Z,15.10
2023-02-26T09:40:59.871Z,15.06
2023-02-26T09:41:59.998Z,15.03
2023-02-26T09:43:00.177Z,15.79
2023-02-26T09:44:00.374Z,16.65
2023-02-26T09:45:00.524Z,16.74
2023-02-26T09:46:00.747Z,17.49
2023-02-26T09:47:00.869Z,18.45
2023-02-26T09:48:01.045Z,19.12
2023-02-26T09:49:01.225Z,18.75
2023-02-26T09:50:01.409Z,18.74
2023-02-26T09:51:01.607Z,19.00
2023-02-26T09:52:01.785Z,18.07
2023-02-26T09:53:01.964Z,16.81
2023-02-26T09:54:02.143Z,16.10
2023-02-26T09:55:02.311Z,15.88
2023-02-26T09:56:02.510Z,15.31
2023-02-26T09:57:02.655Z,14.58
2023-02-26T09:58:02.834Z,13.85
2023-02-26T09:59:02.998Z,13.11
2023-02-26T10:00:03.159Z,12.49
2023-02-26T10:01:03.361Z,12.20
2023-02-26T10:02:03.556Z,11.94
2023-02-26T10:03:03.691Z,11.81
2023-02-26T10:04:03.921Z,11.81
2023-02-26T10:05:04.040Z,11.87
2023-02-26T10:06:04.251Z,11.99
2023-02-26T10:07:04.395Z,12.03
2023-02-26T10:08:04.580Z,11.90
2023-02-26T10:09:04.761Z,11.81
2023-02-26T10:10:04.920Z,11.72
2023-02-26T10:11:05.139Z,11.60
2023-02-26T10:12:05.272Z,11.47
2023-02-26T10:13:05.446Z,11.29
2023-02-26T10:14:05.622Z,11.10
2023-02-26T10:15:05.789Z,10.90
2023-02-26T10:16:05.973Z,10.74
2023-02-26T10:17:06.198Z,10.63
2023-02-26T10:18:06.296Z,10.48
2023-02-26T10:19:06.482Z,10.38
2023-02-26T10:20:06.769Z,10.28
2023-02-26T10:21:06.843Z,10.16
2023-02-26T10:22:07.001Z,10.12
2023-02-26T10:23:07.206Z,10.04
2023-02-26T10:24:07.382Z,10.09
2023-02-26T10:25:07.574Z,10.07
2023-02-26T10:26:07.771Z,10.05
2023-02-26T10:27:07.933Z,9.94
2023-02-26T10:28:08.111Z,9.83
2023-02-26T10:29:08.275Z,9.68
2023-02-26T10:30:08.448Z,9.46
2023-02-26T10:31:08.709Z,9.32
2023-02-26T10:32:08.883Z,9.21
2023-02-26T10:33:08.973Z,9.08
2023-02-26T10:34:09.149Z,9.00
2023-02-26T10:35:09.319Z,8.88
2023-02-26T10:36:09.492Z,8.78
2023-02-26T10:37:09.655Z,8.67
2023-02-26T10:38:09.836Z,8.58
2023-02-26T10:39:10.040Z,8.53
2023-02-26T10:40:10.195Z,8.46
2023-02-26T10:41:10.387Z,8.38
2023-02-26T10:42:10.544Z,8.36
2023-02-26T10:43:10.769Z,8.33
2023-02-26T10:44:10.931Z,8.28
2023-02-26T10:45:11.117Z,8.26
2023-02-26T10:46:11.422Z,8.28
2023-02-26T10:47:11.464Z,8.27
2023-02-26T10:48:11.628Z,8.23
2023-02-26T10:49:11.791Z,8.16
2023-02-26T10:50:11.989Z,8.18
2023-02-26T10:51:12.150Z,8.18
2023-02-26T10:52:12.330Z,8.12
2023-02-26T10:53:12.490Z,8.06
2023-02-26T10:54:12.683Z,7.98
2023-02-26T10:55:12.841Z,7.93
2023-02-26T10:56:13.043Z,7.82
2023-02-26T10:57:13.208Z,7.77
2023-02-26T10:58:13.389Z,7.75
2023-02-26T10:59:15.772Z,7.73
2023-02-26T11:00:13.751Z,7.72
2023-02-26T11:01:13.960Z,7.72
2023-02-26T11:02:14.182Z,7.70
2023-02-26T11:03:14.288Z,7.76
2023-02-26T11:04:14.456Z,7.83
2023-02-26T11:05:14.643Z,7.90
2023-02-26T11:06:14.817Z,7.98
2023-02-26T11:07:14.975Z,8.01
2023-02-26T11:08:15.143Z,8.00
2023-02-26T11:09:15.332Z,8.03
2023-02-26T11:10:15.495Z,8.10
2023-02-26T11:11:15.694Z,8.18
2023-02-26T11:12:15.868Z,8.23
2023-02-26T11:13:16.015Z,8.26
2023-02-26T11:14:16.187Z,8.31
2023-02-26T11:15:16.348Z,8.41
2023-02-26T11:16:16.587Z,8.36
2023-02-26T11:17:16.714Z,8.36
2023-02-26T11:18:16.889Z,8.30
2023-02-26T11:19:17.072Z,8.20
2023-02-26T11:20:17.226Z,8.13
2023-02-26T11:21:17.442Z,8.12
2023-02-26T11:22:17.656Z,8.15
2023-02-26T11:23:17.773Z,8.18
2023-02-26T11:24:17.958Z,8.23
2023-02-26T11:25:18.173Z,8.24
2023-02-26T11:26:18.346Z,8.16
2023-02-26T11:27:18.529Z,8.15
2023-02-26T11:28:18.686Z,8.16
2023-02-26T11:29:18.870Z,8.24
2023-02-26T11:30:19.034Z,8.24
2023-02-26T11:31:19.321Z,8.23
2023-02-26T11:32:19.508Z,8.19
2023-02-26T11:33:19.527Z,8.20
2023-02-26T11:34:19.697Z,8.26
2023-02-26T11:35:19.885Z,8.33
2023-02-26T11:36:20.084Z,8.37
2023-02-26T11:37:20.234Z,8.44
2023-02-26T11:38:20.481Z,8.49
2023-02-26T11:39:20.558Z,8.58
2023-02-26T11:40:20.725Z,8.71
2023-02-26T11:41:20.894Z,8.84
2023-02-26T11:42:21.068Z,8.82
2023-02-26T11:43:21.234Z,8.74
2023-02-26T11:44:21.403Z,8.79
2023-02-26T11:45:21.594Z,8.79
2023-02-26T11:46:21.824Z,8.78
2023-02-26T11:47:21.924Z,8.73
2023-02-26T11:48:22.085Z,8.71
2023-02-26T11:49:22.263Z,8.61
2023-02-26T11:50:22.474Z,8.64
2023-02-26T11:51:22.659Z,8.67
2023-02-26T11:52:22.811Z,8.74
2023-02-26T11:53:22.973Z,8.74
2023-02-26T11:54:23.201Z,8.71
2023-02-26T11:55:23.344Z,8.74
2023-02-26T11:56:23.514Z,8.81
2023-02-26T11:57:23.673Z,8.88
2023-02-26T11:58:23.860Z,8.92
2023-02-26T11:59:24.020Z,8.97
2023-02-26T12:00:24.209Z,9.02
2023-02-26T12:01:24.836Z,9.04
2023-02-26T12:02:24.641Z,9.08
2023-02-26T12:03:24.772Z,9.10
2023-02-26T12:04:27.493Z,9.04
2023-02-26T12:05:25.097Z,8.92
2023-02-26T12:06:25.277Z,8.85
2023-02-26T12:07:25.413Z,8.87
2023-02-26T12:08:25.603Z,8.87
2023-02-26T12:09:25.788Z,8.82
2023-02-26T12:10:25.980Z,8.91
2023-02-26T12:11:26.446Z,9.00
2023-02-26T12:12:26.306Z,9.11
2023-02-26T12:13:26.493Z,9.19
2023-02-26T12:14:26.705Z,9.22
2023-02-26T12:15:26.870Z,9.22
2023-02-26T12:16:27.104Z,9.23
2023-02-26T12:17:27.209Z,9.18
2023-02-26T12:18:27.398Z,9.13
2023-02-26T12:19:27.700Z,9.00
2023-02-26T12:20:27.774Z,8.84
2023-02-26T12:21:28.517Z,8.71
2023-02-26T12:22:28.123Z,8.60
2023-02-26T12:23:28.312Z,8.52
2023-02-26T12:24:28.495Z,8.42
2023-02-26T12:25:28.644Z,8.38
2023-02-26T12:26:28.880Z,8.38
2023-02-26T12:27:29.024Z,8.37
2023-02-26T12:28:29.218Z,8.37
2023-02-26T12:29:29.397Z,8.41
2023-02-26T12:30:29.602Z,8.45
2023-02-26T12:31:30.430Z,8.45
2023-02-26T12:32:29.959Z,8.46
2023-02-26T12:33:30.134Z,8.48
2023-02-26T12:34:30.295Z,8.46
2023-02-26T12:35:30.484Z,8.48
2023-02-26T12:36:46.483Z,8.55
2023-02-26T12:37:31.852Z,8.61
2023-02-26T12:38:31.026Z,8.64
2023-02-26T12:39:31.209Z,8.64
2023-02-26T12:40:31.393Z,8.55
2023-02-26T12:41:31.558Z,8.52
2023-02-26T12:42:31.739Z,8.44
2023-02-26T12:43:34.125Z,8.37
2023-02-26T12:44:32.089Z,8.30
2023-02-26T12:45:32.249Z,8.27
2023-02-26T12:46:32.455Z,8.24
2023-02-26T12:47:32.599Z,8.24
2023-02-26T12:48:32.781Z,8.18
2023-02-26T12:49:32.972Z,8.18
2023-02-26T12:50:33.133Z,8.12
2023-02-26T12:51:33.311Z,8.10
2023-02-26T12:52:33.482Z,8.12
2023-02-26T12:53:33.631Z,8.12
2023-02-26T12:54:36.337Z,8.13
2023-02-26T12:55:33.975Z,8.13
2023-02-26T12:56:34.190Z,8.10
2023-02-26T12:57:34.353Z,8.09
2023-02-26T12:58:34.539Z,8.01
2023-02-26T12:59:34.699Z,7.95
2023-02-26T13:00:34.889Z,7.97
2023-02-26T13:01:35.074Z,8.00
2023-02-26T13:02:35.230Z,8.00
2023-02-26T13:03:35.436Z,8.01
2023-02-26T13:04:35.579Z,8.10
2023-02-26T13:05:35.739Z,8.15
2023-02-26T13:06:35.922Z,8.20
2023-02-26T13:07:36.091Z,8.26
2023-02-26T13:08:36.258Z,8.33
2023-02-26T13:09:36.432Z,8.36
2023-02-26T13:10:36.606Z,8.38
2023-02-26T13:11:36.846Z,8.42
2023-02-26T13:12:36.929Z,8.48
2023-02-26T13:13:37.098Z,8.61
2023-02-26T13:14:37.290Z,8.73
2023-02-26T13:15:37.497Z,8.87
2023-02-26T13:16:37.691Z,8.94